createdAt,value
2023-02-04T06:18:42.540Z,235.07
2023-02-04T06:28:42.649Z,180.00
2023-02-04T06:38:42.656Z,180.00
2023-02-04T06:48:42.740Z,180.00
2023-02-04T06:58:42.789Z,176.60
2023-02-04T07:08:42.551Z,120.33
2023-02-04T07:18:42.647Z,90.00
2023-02-04T07:28:42.752Z,150.84
2023-02-04T07:38:42.607Z,180.00
2023-02-04T07:48:42.622Z,180.00
2023-02-04T07:58:42.693Z,105.41
2023-02-04T08:08:42.607Z,90.00
2023-02-04T08:18:42.696Z,90.00
2023-02-04T08:28:42.731Z,90.00
2023-02-04T08:38:42.557Z,90.00
2023-02-04T08:48:42.670Z,94.74
2023-02-04T08:58:42.628Z,87.44
2023-02-04T09:08:42.574Z,45.00
2023-02-04T09:18:42.506Z,131.07
2023-02-04T09:28:42.651Z,93.66
2023-02-04T09:38:42.822Z,95.63
2023-02-04T09:48:42.781Z,107.39
2023-02-04T09:58:42.957Z,94.66
2023-02-04T10:08:42.583Z,91.58
2023-02-04T10:18:42.503Z,93.70
2023-02-04T10:28:42.671Z,94.08
2023-02-04T10:38:42.573Z,99.06
2023-02-04T10:48:42.662Z,106.82
2023-02-04T10:58:42.707Z,109.10
2023-02-04T11:08:42.537Z,135.72
2023-02-04T11:18:42.637Z,129.20
2023-02-04T11:28:42.605Z,151.10
2023-02-04T11:38:42.502Z,144.50
2023-02-04T11:48:42.494Z,119.20
2023-02-04T11:58:42.584Z,137.79
2023-02-04T12:08:42.663Z,95.31
2023-02-04T12:18:42.693Z,90.00
2023-02-04T12:28:42.660Z,90.00
2023-02-04T12:38:42.539Z,94.03
2023-02-04T12:48:42.713Z,95.75
2023-02-04T12:58:42.634Z,90.00
2023-02-04T13:08:42.497Z,147.87
2023-02-04T13:18:42.829Z,180.56
2023-02-04T13:28:42.625Z,83.28
2023-02-04T13:38:42.724Z,136.00
2023-02-04T13:48:42.822Z,143.77
2023-02-04T13:58:42.560Z,116.93
2023-02-04T14:08:42.788Z,154.02
2023-02-04T14:18:42.702Z,167.65
2023-02-04T14:28:42.519Z,133.38
2023-02-04T14:38:42.568Z,147.77
2023-02-04T14:48:42.652Z,160.75
2023-02-04T14:58:42.591Z,180.00
2023-02-04T15:08:42.577Z,122.24
2023-02-04T15:18:42.512Z,90.00
2023-02-04T15:28:42.666Z,90.00
2023-02-04T15:38:42.708Z,90.00
2023-02-04T15:48:42.572Z,90.00
2023-02-04T15:58:42.753Z,90.00
2023-02-04T16:08:42.699Z,90.00
2023-02-04T16:18:42.769Z,94.82
2023-02-04T16:28:42.859Z,164.85
2023-02-04T16:38:42.616Z,171.28
2023-02-04T16:48:42.754Z,172.77
2023-02-04T16:58:42.918Z,90.00
2023-02-04T17:08:42.672Z,85.77
2023-02-04T17:18:42.774Z,45.00
2023-02-04T17:28:42.648Z,45.61
2023-02-04T17:38:42.779Z,90.00
2023-02-04T17:48:42.624Z,90.00
2023-02-04T17:58:42.696Z,90.00
2023-02-04T18:08:42.707Z,90.00
2023-02-04T18:18:42.828Z,90.00
2023-02-04T18:28:42.731Z,90.00
2023-02-04T18:38:42.915Z,90.00
2023-02-04T18:48:42.652Z,99.29
2023-02-04T18:58:42.821Z,135.00
2023-02-04T19:08:42.806Z,135.00
2023-02-04T19:18:42.702Z,126.60
